Time;durP1;ratioP1;P1;durP2;ratioP2;P2;SDS_P1;SDS_P2;PMS_P1;PMS_P2;Temp;Humidity;BMP_temperature;BMP_pressure;BME280_temperature;BME280_humidity;BME280_pressure;Samples;Min_cycle;Max_cycle;Signal;HPM_P1;HPM_P2
2022/11/16 00:01:08;;;;;;;53.47;29.38;;;;;;;6.62;100.00;100636.06;4932415;29;20262;-46
2022/11/16 00:03:34;;;;;;;58.05;29.13;;;;;;;6.59;100.00;100639.66;5005986;28;20240;-46
2022/11/16 00:06:03;;;;;;;56.65;30.02;;;;;;;6.60;100.00;100638.78;4933911;29;20214;-48
2022/11/16 00:08:30;;;;;;;60.78;29.50;;;;;;;6.60;100.00;100633.44;5000189;28;20196;-48
2022/11/16 00:11:13;;;;;;;52.17;28.92;;;;;;;6.61;100.00;100623.66;4992994;28;20685;-47
2022/11/16 00:13:42;;;;;;;62.15;31.38;;;;;;;6.68;100.00;100616.41;4934176;29;20656;-49
2022/11/16 00:16:13;;;;;;;56.90;30.80;;;;;;;6.66;100.00;100611.09;4935388;28;20199;-48
2022/11/16 00:18:38;;;;;;;63.15;31.33;;;;;;;6.65;100.00;100632.44;4939085;29;20183;-48
2022/11/16 00:21:05;;;;;;;64.20;31.42;;;;;;;6.66;100.00;100610.25;4939594;29;20715;-47
2022/11/16 00:23:31;;;;;;;67.22;32.00;;;;;;;6.70;100.00;100593.28;5003719;28;20592;-48
2022/11/16 00:26:04;;;;;;;65.78;33.65;;;;;;;6.68;100.00;100619.94;5007576;28;20198;-47
2022/11/16 00:28:30;;;;;;;68.97;33.92;;;;;;;6.69;100.00;100616.38;4938456;29;20308;-46
2022/11/16 00:31:04;;;;;;;68.13;33.53;;;;;;;6.70;100.00;100614.56;4933556;28;20215;-47
2022/11/16 00:33:29;;;;;;;67.53;33.03;;;;;;;6.76;100.00;100622.41;4936295;29;20175;-47
2022/11/16 00:35:55;;;;;;;67.78;33.22;;;;;;;6.75;100.00;100607.34;4959655;28;20202;-47
2022/11/16 00:38:21;;;;;;;68.72;33.13;;;;;;;6.77;100.00;100605.50;4934760;29;20187;-45
2022/11/16 00:40:47;;;;;;;66.18;32.40;;;;;;;6.76;100.00;100619.75;5009230;28;20222;-45
2022/11/16 00:43:12;;;;;;;68.35;32.88;;;;;;;6.77;100.00;100616.16;4934084;28;20678;-47
2022/11/16 00:45:39;;;;;;;64.20;30.98;;;;;;;6.82;100.00;100606.25;4932734;29;20210;-47
2022/11/16 00:48:05;;;;;;;68.55;33.25;;;;;;;6.83;100.00;100621.31;5015321;28;20244;-46
2022/11/16 00:50:31;;;;;;;70.38;33.28;;;;;;;6.85;100.00;100603.53;4999749;28;20192;-44
2022/11/16 00:52:57;;;;;;;70.53;33.47;;;;;;;6.84;100.00;100598.22;5005607;28;20206;-44
2022/11/16 00:55:23;;;;;;;67.13;32.35;;;;;;;6.83;100.00;100596.50;5007841;28;20210;-44
2022/11/16 00:57:49;;;;;;;65.82;32.17;;;;;;;6.82;100.00;100598.25;5015566;28;20222;-48
2022/11/16 01:00:16;;;;;;;63.53;32.67;;;;;;;6.84;100.00;100598.22;5006483;28;20645;-43
2022/11/16 01:02:42;;;;;;;56.40;30.63;;;;;;;6.82;100.00;100592.94;5009467;28;20616;-47
2022/11/16 01:05:08;;;;;;;57.75;30.90;;;;;;;6.80;100.00;100578.81;4935239;29;20195;-44
2022/11/16 01:07:36;;;;;;;58.50;30.30;;;;;;;6.84;100.00;100587.56;4985554;28;20314;-46
2022/11/16 01:10:09;;;;;;;61.92;31.15;;;;;;;6.83;100.00;100596.50;4936565;29;20170;-47
2022/11/16 01:12:35;;;;;;;59.55;30.35;;;;;;;6.83;100.00;100596.50;5006083;28;20687;-46
2022/11/16 01:15:01;;;;;;;56.42;29.17;;;;;;;6.85;100.00;100590.22;4929983;29;20648;-45
2022/11/16 01:17:27;;;;;;;58.67;29.45;;;;;;;6.83;100.00;100597.38;4944230;29;20194;-44
2022/11/16 01:19:53;;;;;;;50.90;28.25;;;;;;;6.88;100.00;100606.09;4936182;29;20309;-45
2022/11/16 01:22:19;;;;;;;46.97;27.42;;;;;;;6.91;100.00;100599.81;4934124;29;20254;-46
2022/11/16 01:24:45;;;;;;;49.53;27.10;;;;;;;6.89;100.00;100593.69;4936681;29;20187;-48
2022/11/16 01:27:12;;;;;;;48.95;27.17;;;;;;;6.89;100.00;100591.88;4994453;28;20262;-45
2022/11/16 01:29:41;;;;;;;50.35;26.33;;;;;;;6.92;100.00;100581.13;5005503;28;20182;-45
2022/11/16 01:32:07;;;;;;;42.63;26.00;;;;;;;6.93;100.00;100572.25;4934802;29;20593;-44
2022/11/16 01:34:33;;;;;;;48.30;25.95;;;;;;;6.88;100.00;100574.13;5005051;28;20191;-44
2022/11/16 01:37:05;;;;;;;49.83;26.17;;;;;;;6.92;100.00;100566.94;5007381;28;20220;-44
2022/11/16 01:39:34;;;;;;;48.63;26.20;;;;;;;6.88;100.00;100563.47;5004530;28;20222;-50
2022/11/16 01:42:01;;;;;;;46.65;25.20;;;;;;;6.88;100.00;100544.84;5008387;28;20251;-47
2022/11/16 01:44:30;;;;;;;46.42;25.08;;;;;;;6.85;100.00;100552.06;5015282;28;20186;-44
2022/11/16 01:47:05;;;;;;;46.80;25.52;;;;;;;6.83;100.00;100536.13;5004449;28;20234;-46
2022/11/16 01:49:35;;;;;;;47.03;25.88;;;;;;;6.84;100.00;100540.50;4935094;29;20683;-48
2022/11/16 01:52:05;;;;;;;40.08;23.73;;;;;;;6.82;100.00;100537.00;4930333;29;20336;-46
2022/11/16 01:54:37;;;;;;;37.42;21.90;;;;;;;6.84;100.00;100532.53;5004661;28;20313;-46
2022/11/16 01:57:09;;;;;;;40.03;21.48;;;;;;;6.86;100.00;100536.03;5000891;28;20238;-52
2022/11/16 01:59:45;;;;;;;34.00;20.73;;;;;;;6.86;100.00;100530.69;5020588;28;20213;-45
2022/11/16 02:02:15;;;;;;;37.55;21.75;;;;;;;6.87;100.00;100520.94;5001563;28;20202;-48
2022/11/16 02:04:43;;;;;;;35.55;20.75;;;;;;;6.84;100.00;100519.22;5004182;28;20205;-46
2022/11/16 02:07:22;;;;;;;32.75;18.70;;;;;;;6.83;100.00;100535.25;5002977;28;20320;-45
2022/11/16 02:10:17;;;;;;;32.15;19.02;;;;;;;6.82;100.00;100513.06;4997582;28;20664;-45
2022/11/16 02:13:40;;;;;;;35.05;19.65;;;;;;;6.80;100.00;100512.25;5013383;28;20198;-42
2022/11/16 02:16:27;;;;;;;31.00;17.92;;;;;;;6.78;100.00;100530.06;5028843;28;20247;-44
2022/11/16 02:19:24;;;;;;;31.90;17.85;;;;;;;6.81;100.00;100521.97;5014107;28;20808;-42
2022/11/16 02:22:16;;;;;;;32.20;17.70;;;;;;;6.83;100.00;100521.94;5010906;28;20179;-48
2022/11/16 02:24:58;;;;;;;32.13;16.80;;;;;;;6.84;100.00;100523.66;4986289;28;20609;-43
2022/11/16 02:27:46;;;;;;;36.00;18.38;;;;;;;6.85;100.00;100514.78;5011189;28;20238;-44
2022/11/16 02:30:14;;;;;;;24.65;16.02;;;;;;;6.80;100.00;100517.56;5009967;28;20712;-42
2022/11/16 02:32:57;;;;;;;31.10;17.10;;;;;;;6.77;100.00;100496.34;5011985;28;20570;-42
2022/11/16 02:35:25;;;;;;;29.42;18.05;;;;;;;6.78;100.00;100503.44;5000856;28;20664;-42
2022/11/16 02:37:58;;;;;;;28.15;17.23;;;;;;;6.75;100.00;100501.69;5001904;28;20500;-43
2022/11/16 02:40:30;;;;;;;28.75;16.52;;;;;;;6.74;100.00;100510.63;4940954;29;20206;-43
2022/11/16 02:43:07;;;;;;;28.10;16.83;;;;;;;6.76;100.00;100508.78;5020363;28;20187;-43
2022/11/16 02:45:39;;;;;;;23.63;16.23;;;;;;;6.74;100.00;100507.97;5000750;28;20290;-42
2022/11/16 02:48:21;;;;;;;31.02;16.92;;;;;;;6.75;100.00;100503.50;5019357;28;20195;-45
2022/11/16 02:50:51;;;;;;;24.52;16.55;;;;;;;6.78;100.00;100516.75;5016922;28;20659;-43
2022/11/16 02:53:19;;;;;;;30.52;17.42;;;;;;;6.74;100.00;100499.97;4937241;28;20266;-42
2022/11/16 02:55:45;;;;;;;28.92;17.33;;;;;;;6.75;100.00;100498.16;4997253;28;20378;-44
2022/11/16 02:58:13;;;;;;;30.08;17.42;;;;;;;6.72;100.00;100507.13;5005140;28;20183;-44
2022/11/16 03:00:54;;;;;;;28.15;17.13;;;;;;;6.76;100.00;100511.44;5006935;28;20207;-42
2022/11/16 03:03:19;;;;;;;28.33;16.75;;;;;;;6.72;100.00;100499.13;4940220;29;20194;-46
2022/11/16 03:06:02;;;;;;;30.05;17.23;;;;;;;6.68;100.00;100508.13;5011589;28;20233;-42
2022/11/16 03:08:40;;;;;;;29.98;18.33;;;;;;;6.70;100.00;100489.44;5001252;28;20506;-42
2022/11/16 03:14:10;;;;;;;28.95;17.98;;;;;;;6.71;100.00;100486.75;5022832;28;20396;-43
2022/11/16 03:16:47;;;;;;;27.83;17.30;;;;;;;6.70;100.00;100490.31;4940402;29;20825;-46
2022/11/16 03:19:19;;;;;;;28.85;18.40;;;;;;;6.67;100.00;100474.44;5001134;28;20597;-42
2022/11/16 03:21:51;;;;;;;29.70;18.63;;;;;;;6.70;100.00;100477.00;5005856;28;20210;-48
2022/11/16 03:24:19;;;;;;;25.52;17.55;;;;;;;6.66;100.00;100475.34;5001167;28;20282;-45
2022/11/16 03:27:07;;;;;;;30.92;17.95;;;;;;;6.67;100.00;100486.84;4937677;29;20210;-41
2022/11/16 03:29:41;;;;;;;30.45;18.23;;;;;;;6.69;100.00;100477.03;5002013;28;20188;-45
2022/11/16 03:32:25;;;;;;;29.95;18.38;;;;;;;6.67;100.00;100465.56;4935978;29;20566;-45
2022/11/16 03:35:01;;;;;;;28.15;18.70;;;;;;;6.68;100.00;100472.66;5017678;28;20184;-46
2022/11/16 03:37:28;;;;;;;30.67;18.23;;;;;;;6.73;100.00;100471.59;5006189;28;20214;-41
2022/11/16 03:39:59;;;;;;;33.53;19.55;;;;;;;6.74;100.00;100478.66;5005931;28;20692;-44
2022/11/16 03:42:29;;;;;;;29.15;19.30;;;;;;;6.71;100.00;100467.22;5011450;28;20182;-43
2022/11/16 03:44:55;;;;;;;28.35;19.77;;;;;;;6.69;100.00;100477.03;5009922;28;20195;-49
2022/11/16 03:47:21;;;;;;;29.15;19.45;;;;;;;6.72;100.00;100482.28;5004495;28;20216;-46
2022/11/16 03:49:47;;;;;;;31.10;19.67;;;;;;;6.71;100.00;100476.09;5003151;28;20196;-45
2022/11/16 03:52:16;;;;;;;29.25;19.20;;;;;;;6.69;100.00;100469.94;5015215;28;20186;-51
2022/11/16 03:54:42;;;;;;;32.38;20.60;;;;;;;6.69;100.00;100474.38;5007456;28;20191;-45
2022/11/16 03:57:14;;;;;;;28.77;19.55;;;;;;;6.73;100.00;100474.25;5004957;28;20210;-46
2022/11/16 03:59:42;;;;;;;28.58;19.13;;;;;;;6.73;100.00;100494.69;5006265;28;20198;-44
2022/11/16 04:02:08;;;;;;;30.88;19.95;;;;;;;6.72;100.00;100472.50;5002649;28;20222;-42
2022/11/16 04:29:17;;;;;;;27.88;18.98;;;;;;;6.80;100.00;100480.31;5002146;28;20191;-46
2022/11/16 04:40:01;;;;;;;29.27;18.55;;;;;;;6.65;100.00;100489.59;5016564;28;20234;-47
2022/11/16 04:42:27;;;;;;;29.58;19.20;;;;;;;6.63;100.00;100502.06;5008114;28;20248;-47
2022/11/16 04:47:50;;;;;;;29.48;19.38;;;;;;;6.55;100.00;100499.59;4963677;28;20222;-47
2022/11/16 04:50:18;;;;;;;30.65;18.98;;;;;;;6.53;100.00;100503.22;5004765;28;20206;-46
2022/11/16 04:52:45;;;;;;;25.77;19.20;;;;;;;6.53;100.00;100503.22;4999361;28;20202;-47
2022/11/16 04:55:13;;;;;;;31.80;20.13;;;;;;;6.51;100.00;100491.72;5003290;28;20191;-46
2022/11/16 04:57:39;;;;;;;31.25;19.65;;;;;;;6.47;100.00;100506.94;5004167;28;20183;-47
2022/11/16 05:00:06;;;;;;;28.65;20.70;;;;;;;6.46;100.00;100501.63;4996506;28;20250;-48
2022/11/16 05:02:33;;;;;;;29.85;20.60;;;;;;;6.48;100.00;100500.69;4999769;28;20837;-46
2022/11/16 05:05:00;;;;;;;29.52;19.88;;;;;;;6.50;100.00;100498.84;5005542;28;20250;-47
2022/11/16 05:07:27;;;;;;;34.67;21.48;;;;;;;6.41;100.00;100504.41;5000198;28;20280;-48
2022/11/16 05:10:02;;;;;;;32.40;21.45;;;;;;;6.44;100.00;100501.66;5004689;28;20176;-48
2022/11/16 05:12:29;;;;;;;31.92;21.58;;;;;;;6.45;100.00;100500.78;5004984;28;20194;-46
2022/11/16 05:14:59;;;;;;;31.73;22.20;;;;;;;6.42;100.00;100505.28;4997009;28;20179;-47
2022/11/16 05:17:27;;;;;;;33.55;22.38;;;;;;;6.35;100.00;100512.56;5019935;28;20203;-46
2022/11/16 05:22:54;;;;;;;33.67;23.23;;;;;;;6.31;100.00;100509.09;4995692;28;20188;-46
2022/11/16 05:25:20;;;;;;;39.42;24.73;;;;;;;6.28;100.00;100506.53;5012734;28;20216;-47
2022/11/16 05:27:46;;;;;;;37.08;24.25;;;;;;;6.30;100.00;100507.38;4999135;28;20226;-46
2022/11/16 05:30:12;;;;;;;38.22;24.52;;;;;;;6.28;100.00;100495.00;4934300;29;20206;-46
2022/11/16 05:32:38;;;;;;;38.78;24.02;;;;;;;6.21;100.00;100512.94;5002217;28;20299;-48
2022/11/16 05:35:04;;;;;;;43.95;24.90;;;;;;;6.18;100.00;100505.88;5006949;28;20656;-47
2022/11/16 05:37:31;;;;;;;41.47;24.27;;;;;;;6.17;100.00;100506.78;5003307;28;20254;-47
2022/11/16 05:39:57;;;;;;;37.95;22.92;;;;;;;6.14;100.00;100498.91;4933732;29;20211;-47
2022/11/16 05:42:32;;;;;;;39.50;22.23;;;;;;;6.14;100.00;100493.59;5003793;28;20194;-47
2022/11/16 05:44:58;;;;;;;40.63;23.15;;;;;;;6.11;100.00;100503.41;5002058;28;20353;-46
2022/11/16 05:47:23;;;;;;;38.55;22.65;;;;;;;6.16;100.00;100488.22;4997494;28;20730;-47
2022/11/16 05:49:49;;;;;;;38.25;22.15;;;;;;;6.12;100.00;100494.50;5001711;28;20187;-48
2022/11/16 05:52:15;;;;;;;42.30;23.05;;;;;;;6.12;100.00;100521.09;4995155;28;20215;-47
2022/11/16 05:54:43;;;;;;;43.22;23.88;;;;;;;6.08;100.00;100495.50;4999934;28;20176;-47
2022/11/16 05:57:09;;;;;;;40.67;22.33;;;;;;;6.08;100.00;100498.16;5007778;28;20210;-47
2022/11/16 05:59:35;;;;;;;41.53;23.95;;;;;;;6.08;100.00;100495.50;4935229;29;20194;-47
2022/11/16 06:02:03;;;;;;;45.85;23.55;;;;;;;6.08;100.00;100501.72;4998801;28;20679;-46
2022/11/16 06:04:29;;;;;;;41.78;23.88;;;;;;;6.08;100.00;100516.78;4934080;29;20609;-46
2022/11/16 06:06:54;;;;;;;50.70;24.50;;;;;;;6.09;100.00;100511.44;5001938;28;20306;-47
2022/11/16 06:09:24;;;;;;;44.40;24.90;;;;;;;6.10;100.00;100518.50;5000159;28;20576;-47
2022/11/16 06:11:50;;;;;;;48.95;26.17;;;;;;;6.11;100.00;100532.69;5003189;28;20192;-47
2022/11/16 06:14:16;;;;;;;47.53;24.75;;;;;;;6.10;100.00;100512.28;5002434;28;20272;-47
2022/11/16 06:16:42;;;;;;;45.80;25.27;;;;;;;6.11;100.00;100511.41;4997157;28;20202;-46
2022/11/16 06:19:09;;;;;;;47.08;25.52;;;;;;;6.10;100.00;100523.84;5005837;28;20741;-46
2022/11/16 06:21:35;;;;;;;47.63;25.45;;;;;;;6.09;100.00;100508.78;4934496;29;20207;-46
2022/11/16 06:24:07;;;;;;;52.08;26.27;;;;;;;6.13;100.00;100498.94;5003856;28;20194;-47
2022/11/16 06:26:34;;;;;;;48.60;26.25;;;;;;;6.10;100.00;100513.19;5017992;28;20219;-46
2022/11/16 06:29:00;;;;;;;46.75;26.38;;;;;;;6.12;100.00;100511.38;4993669;28;20690;-46
2022/11/16 06:31:27;;;;;;;47.78;27.10;;;;;;;6.13;100.00;100507.78;4939008;29;20730;-46
2022/11/16 06:33:53;;;;;;;46.05;27.17;;;;;;;6.15;100.00;100524.56;5006418;28;20301;-45
2022/11/16 06:36:23;;;;;;;51.85;28.70;;;;;;;6.16;100.00;100518.34;5008292;28;20683;-46
2022/11/16 06:38:49;;;;;;;52.58;29.10;;;;;;;6.16;100.00;100507.69;5007664;28;20180;-48
2022/11/16 06:41:16;;;;;;;57.35;30.45;;;;;;;6.17;100.00;100511.25;5006887;28;20282;-46
2022/11/16 06:43:46;;;;;;;53.97;29.80;;;;;;;6.18;100.00;100505.00;5011183;28;20272;-46
2022/11/16 06:46:13;;;;;;;51.78;29.38;;;;;;;6.20;100.00;100511.16;5007794;28;20188;-46
2022/11/16 06:48:39;;;;;;;49.08;29.00;;;;;;;6.25;100.00;100519.03;4996255;28;20191;-47
2022/11/16 06:51:09;;;;;;;56.85;29.75;;;;;;;6.25;100.00;100506.59;5004685;28;20279;-46
2022/11/16 06:53:35;;;;;;;55.83;30.30;;;;;;;6.29;100.00;100518.03;5009758;28;20257;-46
2022/11/16 06:56:03;;;;;;;55.90;30.08;;;;;;;6.28;100.00;100516.31;5014723;28;20276;-46
2022/11/16 06:58:30;;;;;;;56.90;30.33;;;;;;;6.27;100.00;100519.84;5004141;28;20270;-48
2022/11/16 07:00:57;;;;;;;51.92;28.55;;;;;;;6.29;100.00;100521.56;5002137;28;20203;-46
2022/11/16 07:03:23;;;;;;;60.33;29.77;;;;;;;6.32;100.00;100517.94;4945356;28;20180;-46
2022/11/16 07:05:48;;;;;;;56.90;29.45;;;;;;;6.36;100.00;100531.16;4949068;28;20556;-41
2022/11/16 07:08:16;;;;;;;54.55;27.55;;;;;;;6.33;100.00;100511.72;5005060;28;20194;-42
2022/11/16 07:10:42;;;;;;;56.97;28.13;;;;;;;6.42;100.00;100540.75;5005226;28;20213;-41
2022/11/16 07:13:07;;;;;;;55.97;27.17;;;;;;;6.38;100.00;100517.78;5009643;28;20201;-42
2022/11/16 07:15:36;;;;;;;54.33;27.50;;;;;;;6.37;100.00;100519.59;4946062;28;20234;-42
2022/11/16 07:18:05;;;;;;;61.10;29.73;;;;;;;6.36;100.00;100528.50;5014950;28;20183;-41
2022/11/16 07:20:32;;;;;;;53.60;27.95;;;;;;;6.43;100.00;100526.53;5009462;28;20229;-43
2022/11/16 07:23:00;;;;;;;54.97;28.58;;;;;;;6.38;100.00;100513.38;5025684;28;20186;-44
2022/11/16 07:25:26;;;;;;;54.33;28.30;;;;;;;6.42;100.00;100521.25;5002726;28;20179;-42
2022/11/16 07:27:52;;;;;;;53.08;28.60;;;;;;;6.40;100.00;100518.63;4942088;28;20176;-43
2022/11/16 07:30:20;;;;;;;53.38;29.05;;;;;;;6.44;100.00;100519.44;5005624;28;20210;-43
2022/11/16 07:33:04;;;;;;;57.92;29.15;;;;;;;6.43;100.00;100526.53;4991334;28;20659;-41
2022/11/16 07:35:48;;;;;;;53.55;27.05;;;;;;;6.43;100.00;100537.19;4960785;28;20325;-40
2022/11/16 07:38:15;;;;;;;46.47;26.35;;;;;;;6.46;100.00;100528.25;5011487;28;20194;-41
2022/11/16 07:40:41;;;;;;;51.92;26.33;;;;;;;6.46;100.00;100538.91;4990294;28;20203;-42
2022/11/16 07:43:07;;;;;;;53.65;26.80;;;;;;;6.44;100.00;100530.06;5013355;28;20654;-42
2022/11/16 07:45:53;;;;;;;51.92;25.65;;;;;;;6.46;100.00;100526.44;4940731;28;20248;-42
2022/11/16 07:48:19;;;;;;;57.92;27.90;;;;;;;6.48;100.00;100547.72;5006358;28;20241;-46
2022/11/16 07:51:13;;;;;;;50.47;25.83;;;;;;;6.50;100.00;100535.25;4959559;28;20199;-47
2022/11/16 07:53:45;;;;;;;51.03;26.35;;;;;;;6.50;100.00;100530.78;5000642;28;20194;-43
2022/11/16 07:56:11;;;;;;;48.75;25.70;;;;;;;6.59;100.00;100522.56;4942738;28;20202;-44
2022/11/16 07:58:38;;;;;;;52.88;27.05;;;;;;;6.58;100.00;100523.47;5010685;28;20179;-43
2022/11/16 08:01:05;;;;;;;50.88;26.25;;;;;;;6.58;100.00;100542.13;4938003;28;20214;-49
2022/11/16 08:03:33;;;;;;;47.60;25.13;;;;;;;6.59;100.00;100519.03;5013709;28;20251;-44
2022/11/16 08:06:01;;;;;;;47.70;26.67;;;;;;;6.60;100.00;100528.75;5013032;28;20233;-48
2022/11/16 08:08:27;;;;;;;48.80;26.05;;;;;;;6.64;100.00;100532.19;5008524;28;20733;-46
2022/11/16 08:10:59;;;;;;;45.70;25.73;;;;;;;6.69;100.00;100532.94;5013006;28;20278;-47
2022/11/16 08:13:25;;;;;;;40.95;24.60;;;;;;;6.71;100.00;100516.03;5008571;28;20785;-41
2022/11/16 08:15:50;;;;;;;49.70;26.05;;;;;;;6.72;100.00;100516.91;4940820;28;20278;-43
2022/11/16 08:18:16;;;;;;;45.55;25.80;;;;;;;6.72;100.00;100516.91;5005761;28;20200;-44
2022/11/16 08:20:42;;;;;;;40.50;23.58;;;;;;;6.74;100.00;100509.75;5010031;28;20274;-46
2022/11/16 08:23:09;;;;;;;38.08;22.83;;;;;;;6.74;100.00;100518.59;4997221;28;20190;-44
2022/11/16 08:25:35;;;;;;;46.15;23.52;;;;;;;6.75;100.00;100523.00;5014020;28;20694;-48
2022/11/16 08:28:01;;;;;;;33.38;21.05;;;;;;;6.73;100.00;100526.63;5005003;28;20190;-42
2022/11/16 08:30:28;;;;;;;33.85;21.35;;;;;;;6.74;100.00;100515.94;5009191;28;20817;-47
2022/11/16 08:32:53;;;;;;;34.88;20.90;;;;;;;6.75;100.00;100514.16;5004897;28;20262;-45
2022/11/16 08:35:20;;;;;;;33.97;19.85;;;;;;;6.76;100.00;100510.59;4933113;28;20276;-44
2022/11/16 08:37:46;;;;;;;29.55;19.52;;;;;;;6.76;100.00;100507.91;5010197;28;20668;-49
2022/11/16 08:40:13;;;;;;;36.65;20.17;;;;;;;6.77;100.00;100522.97;4942524;28;20294;-45
2022/11/16 08:42:40;;;;;;;30.17;18.83;;;;;;;6.77;100.00;100504.31;5004416;28;20191;-47
2022/11/16 08:45:06;;;;;;;29.80;19.63;;;;;;;6.78;100.00;100498.97;4937486;29;20189;-43
2022/11/16 08:47:32;;;;;;;30.85;18.83;;;;;;;6.79;100.00;100502.50;5006391;28;20682;-46
2022/11/16 08:49:58;;;;;;;28.48;18.48;;;;;;;6.82;100.00;100491.75;4933976;29;20210;-42
2022/11/16 08:52:27;;;;;;;26.95;17.45;;;;;;;6.76;100.00;100507.91;5002425;28;20237;-44
2022/11/16 08:54:54;;;;;;;26.80;17.38;;;;;;;6.77;100.00;100499.00;5001931;28;20261;-43
2022/11/16 08:57:19;;;;;;;23.15;16.25;;;;;;;6.76;100.00;100491.94;5006551;28;20204;-42
2022/11/16 08:59:48;;;;;;;28.83;17.65;;;;;;;6.74;100.00;100491.97;5005492;28;20203;-42
2022/11/16 09:02:14;;;;;;;27.73;17.33;;;;;;;6.73;100.00;100492.00;4938601;29;20210;-45
2022/11/16 09:04:39;;;;;;;28.15;17.48;;;;;;;6.80;100.00;100491.81;5005328;28;20211;-46
2022/11/16 09:07:05;;;;;;;25.90;16.67;;;;;;;6.75;100.00;100483.06;4934723;29;20206;-47
2022/11/16 09:09:30;;;;;;;27.27;16.70;;;;;;;6.79;100.00;100491.84;4934382;28;20270;-42
2022/11/16 09:11:56;;;;;;;27.35;16.08;;;;;;;6.71;100.00;100486.75;4951956;28;20237;-43
2022/11/16 09:14:21;;;;;;;25.92;16.85;;;;;;;6.74;100.00;100488.44;4957130;28;20221;-46
2022/11/16 09:16:47;;;;;;;26.23;16.23;;;;;;;6.70;100.00;100502.75;4936308;29;20261;-43
2022/11/16 09:19:13;;;;;;;24.83;17.83;;;;;;;6.71;100.00;100496.50;4936870;29;20187;-43
2022/11/16 09:21:39;;;;;;;24.85;17.05;;;;;;;6.70;100.00;100494.78;5003282;28;20247;-42
2022/11/16 09:24:04;;;;;;;24.17;16.58;;;;;;;6.70;100.00;100500.09;5010567;28;20560;-43
2022/11/16 09:26:30;;;;;;;29.38;16.10;;;;;;;6.71;100.00;100486.75;5003969;28;20696;-46
2022/11/16 09:28:58;;;;;;;26.13;16.52;;;;;;;6.69;100.00;100501.91;4934258;29;20202;-43
2022/11/16 09:31:28;;;;;;;25.73;16.15;;;;;;;6.77;100.00;100491.00;4935956;29;20210;-45
2022/11/16 09:33:57;;;;;;;23.33;15.70;;;;;;;6.75;100.00;100508.81;4935721;29;20183;-43
2022/11/16 09:36:23;;;;;;;24.70;16.52;;;;;;;6.79;100.00;100505.16;4937414;29;20672;-47
2022/11/16 09:38:49;;;;;;;22.38;16.65;;;;;;;6.88;100.00;100490.72;4939987;28;20241;-43
2022/11/16 09:41:15;;;;;;;24.95;16.08;;;;;;;6.84;100.00;100503.22;5006470;28;20679;-45
2022/11/16 09:44:01;;;;;;;22.23;16.30;;;;;;;6.86;100.00;100493.41;4945969;28;20189;-47
2022/11/16 09:46:26;;;;;;;26.45;15.75;;;;;;;6.87;100.00;100489.84;4945918;28;20209;-45
2022/11/16 09:48:57;;;;;;;23.73;15.02;;;;;;;6.90;100.00;100492.41;4959530;28;20199;-47
2022/11/16 09:51:28;;;;;;;19.98;14.40;;;;;;;6.90;100.00;100479.09;4936980;28;20199;-46
2022/11/16 09:54:04;;;;;;;22.33;15.38;;;;;;;6.90;100.00;100492.41;4949250;28;20190;-45
2022/11/16 09:56:34;;;;;;;24.85;15.25;;;;;;;6.92;100.00;100503.03;5000776;28;20220;-46
2022/11/16 09:59:14;;;;;;;20.63;14.55;;;;;;;6.90;100.00;100503.06;5008925;28;20179;-47
2022/11/16 10:01:49;;;;;;;21.95;14.00;;;;;;;6.95;100.00;100500.28;4940125;28;20194;-46
2022/11/16 10:04:37;;;;;;;22.30;14.65;;;;;;;6.95;100.00;100492.28;5009123;28;20186;-45
2022/11/16 10:07:16;;;;;;;21.40;14.70;;;;;;;6.92;100.00;100487.91;4938945;28;20250;-47
2022/11/16 10:09:45;;;;;;;19.58;13.15;;;;;;;6.90;100.00;100507.53;4996240;28;20194;-46
2022/11/16 10:12:42;;;;;;;21.40;14.55;;;;;;;6.92;100.00;100519.88;4937172;28;20237;-44
2022/11/16 10:15:14;;;;;;;22.58;13.85;;;;;;;6.92;100.00;100509.22;4943129;28;20226;-47
2022/11/16 10:17:58;;;;;;;20.88;13.57;;;;;;;6.93;100.00;100507.44;4950987;28;20741;-46
2022/11/16 10:20:43;;;;;;;18.42;13.13;;;;;;;6.91;100.00;100520.81;4937176;28;20238;-46
2022/11/16 10:23:26;;;;;;;19.00;14.05;;;;;;;6.92;100.00;100521.66;4939748;28;20210;-47
2022/11/16 10:26:00;;;;;;;19.58;13.60;;;;;;;6.90;100.00;100511.06;4941265;28;20217;-46
2022/11/16 10:28:31;;;;;;;18.38;14.13;;;;;;;6.88;100.00;100507.56;4939056;28;20237;-45
2022/11/16 10:31:22;;;;;;;24.55;14.35;;;;;;;6.95;100.00;100508.25;4941888;28;20648;-46
2022/11/16 10:33:52;;;;;;;21.88;14.10;;;;;;;6.90;100.00;100521.72;4929062;29;20257;-45
2022/11/16 10:36:20;;;;;;;22.15;15.85;;;;;;;6.85;100.00;100518.31;4936965;28;20238;-44
2022/11/16 10:38:45;;;;;;;18.60;14.38;;;;;;;6.88;100.00;100517.34;5000911;28;20189;-44
2022/11/16 10:41:45;;;;;;;23.92;15.63;;;;;;;6.87;100.00;100511.16;4935870;29;20207;-46
2022/11/16 10:44:20;;;;;;;22.48;16.55;;;;;;;6.91;100.00;100507.50;4930928;29;20187;-47
2022/11/16 10:47:00;;;;;;;24.00;16.50;;;;;;;6.90;100.00;100507.53;4937331;29;20234;-45
2022/11/16 10:50:13;;;;;;;22.67;17.10;;;;;;;6.87;100.00;100500.50;4937528;29;20338;-44
2022/11/16 10:52:39;;;;;;;25.10;18.63;;;;;;;6.84;100.00;100500.56;4945948;28;20602;-47
2022/11/16 10:55:05;;;;;;;28.13;18.67;;;;;;;6.83;100.00;100504.16;4934670;28;20252;-45
2022/11/16 10:58:04;;;;;;;26.05;18.50;;;;;;;6.84;100.00;100508.56;4934839;29;20202;-43
2022/11/16 11:00:39;;;;;;;23.80;18.50;;;;;;;6.81;100.00;100504.19;5016042;28;20218;-47
2022/11/16 11:03:06;;;;;;;27.45;19.27;;;;;;;6.80;100.00;100514.91;4938765;29;20539;-47
2022/11/16 11:05:34;;;;;;;27.90;19.08;;;;;;;6.78;100.00;100500.78;5008798;28;20255;-45
2022/11/16 11:08:10;;;;;;;28.73;20.02;;;;;;;6.78;100.00;100512.28;4934875;29;20215;-44
2022/11/16 11:10:39;;;;;;;28.05;20.60;;;;;;;6.78;100.00;100509.63;4941216;29;20323;-47
2022/11/16 11:13:11;;;;;;;31.90;19.98;;;;;;;6.74;100.00;100496.44;4936900;29;20259;-45
2022/11/16 11:15:39;;;;;;;25.83;19.23;;;;;;;6.76;100.00;100499.94;4937172;29;20216;-46
2022/11/16 11:18:22;;;;;;;28.83;20.88;;;;;;;6.76;100.00;100521.22;4937885;29;20317;-46
2022/11/16 11:21:19;;;;;;;28.92;21.13;;;;;;;6.69;100.00;100515.22;4935500;28;20209;-46
2022/11/16 11:23:49;;;;;;;26.75;19.80;;;;;;;6.68;100.00;100513.44;4943964;28;20305;-45
2022/11/16 11:26:36;;;;;;;27.90;19.63;;;;;;;6.67;100.00;100527.69;5012032;28;20254;-45
2022/11/16 11:29:25;;;;;;;27.00;20.10;;;;;;;6.69;100.00;100501.00;4943107;29;20240;-44
2022/11/16 11:31:58;;;;;;;28.08;19.20;;;;;;;6.67;100.00;100518.78;4942629;29;20187;-46
2022/11/16 11:34:27;;;;;;;28.90;20.15;;;;;;;6.67;100.00;100510.81;4935157;29;20656;-46
2022/11/16 11:36:56;;;;;;;24.30;19.08;;;;;;;6.68;100.00;100533.88;4937375;29;20207;-44
2022/11/16 11:39:22;;;;;;;23.85;19.08;;;;;;;6.66;100.00;100522.38;4937461;29;20629;-45
2022/11/16 11:42:05;;;;;;;25.42;19.63;;;;;;;6.72;100.00;100507.13;5020559;28;20290;-47
2022/11/16 11:44:49;;;;;;;22.65;18.48;;;;;;;6.70;100.00;100505.41;5006167;28;20179;-47
2022/11/16 11:47:29;;;;;;;24.77;19.85;;;;;;;6.66;100.00;100511.75;4933650;29;20368;-48
2022/11/16 11:50:13;;;;;;;25.85;20.45;;;;;;;6.68;100.00;100507.25;4937227;28;20201;-45
2022/11/16 11:53:01;;;;;;;26.60;19.02;;;;;;;6.67;100.00;100508.16;4935335;29;20198;-45
2022/11/16 11:55:27;;;;;;;23.45;18.65;;;;;;;6.67;100.00;100508.16;5005765;28;20558;-45
2022/11/16 11:57:54;;;;;;;25.58;18.35;;;;;;;6.69;100.00;100506.31;4935319;29;20195;-45
2022/11/16 12:00:21;;;;;;;22.60;18.65;;;;;;;6.67;100.00;100505.50;4930797;29;20211;-46
2022/11/16 12:03:09;;;;;;;22.83;17.85;;;;;;;6.67;100.00;100509.06;4938802;29;20599;-48
2022/11/16 12:05:49;;;;;;;24.38;17.77;;;;;;;6.68;100.00;100502.78;4998929;28;20207;-46
2022/11/16 12:08:33;;;;;;;22.40;17.52;;;;;;;6.71;100.00;100504.50;4937442;29;20183;-44